sensor_id;sensor_type;location;lat;lon;timestamp;pressure;altitude;pressure_sealevel;temperature;humidity
75646;BME280;64237;52.438;13.240;2022-10-18T00:02:12;101992.41;;;14.22;86.47
75646;BME280;64237;52.438;13.240;2022-10-18T00:04:37;101992.78;;;14.26;85.98
75646;BME280;64237;52.438;13.240;2022-10-18T00:07:03;101988.06;;;14.26;86.08
75646;BME280;64237;52.438;13.240;2022-10-18T00:09:28;101990.25;;;14.24;85.72
75646;BME280;64237;52.438;13.240;2022-10-18T00:11:54;101988.16;;;14.20;86.21
75646;BME280;64237;52.438;13.240;2022-10-18T00:14:19;101992.03;;;14.19;86.24
75646;BME280;64237;52.438;13.240;2022-10-18T00:16:45;101984.38;;;14.14;86.38
75646;BME280;64237;52.438;13.240;2022-10-18T00:19:10;101988.38;;;14.18;86.11
75646;BME280;64237;52.438;13.240;2022-10-18T00:21:36;101997.22;;;14.15;86.53
75646;BME280;64237;52.438;13.240;2022-10-18T00:24:01;101987.53;;;14.18;86.40
75646;BME280;64237;52.438;13.240;2022-10-18T00:26:28;101995.03;;;14.17;86.52
75646;BME280;64237;52.438;13.240;2022-10-18T00:28:56;101991.66;;;14.15;86.54
75646;BME280;64237;52.438;13.240;2022-10-18T00:33:51;102002.78;;;14.15;86.34
75646;BME280;64237;52.438;13.240;2022-10-18T00:36:17;102002.47;;;14.23;85.93
75646;BME280;64237;52.438;13.240;2022-10-18T00:38:42;102011.66;;;14.24;85.95
75646;BME280;64237;52.438;13.240;2022-10-18T00:41:10;102005.72;;;14.20;86.00
75646;BME280;64237;52.438;13.240;2022-10-18T00:46:21;102012.97;;;14.21;86.51
75646;BME280;64237;52.438;13.240;2022-10-18T00:48:47;102001.84;;;14.21;85.88
75646;BME280;64237;52.438;13.240;2022-10-18T00:51:14;102005.97;;;14.30;85.65
75646;BME280;64237;52.438;13.240;2022-10-18T00:53:41;102004.88;;;14.31;85.73
75646;BME280;64237;52.438;13.240;2022-10-18T00:56:06;102002.47;;;14.23;85.95
75646;BME280;64237;52.438;13.240;2022-10-18T00:58:33;102013.91;;;14.15;86.79
75646;BME280;64237;52.438;13.240;2022-10-18T01:00:58;102007.13;;;14.11;86.56
75646;BME280;64237;52.438;13.240;2022-10-18T01:03:24;102016.78;;;14.08;86.74
75646;BME280;64237;52.438;13.240;2022-10-18T01:05:49;102019.31;;;14.10;86.59
75646;BME280;64237;52.438;13.240;2022-10-18T01:19:32;102019.09;;;14.12;86.54
75646;BME280;64237;52.438;13.240;2022-10-18T01:22:03;102010.50;;;14.13;86.50
75646;BME280;64237;52.438;13.240;2022-10-18T01:24:46;102001.47;;;14.18;86.08
75646;BME280;64237;52.438;13.240;2022-10-18T01:27:39;102008.25;;;14.22;85.88
75646;BME280;64237;52.438;13.240;2022-10-18T01:30:26;102011.88;;;14.22;86.15
75646;BME280;64237;52.438;13.240;2022-10-18T01:33:04;102005.63;;;14.27;85.99
75646;BME280;64237;52.438;13.240;2022-10-18T01:35:35;102000.28;;;14.25;85.97
75646;BME280;64237;52.438;13.240;2022-10-18T01:38:06;102002.00;;;14.26;85.73
75646;BME280;64237;52.438;13.240;2022-10-18T01:40:35;102003.69;;;14.27;85.77
75646;BME280;64237;52.438;13.240;2022-10-18T01:43:03;102007.41;;;14.21;85.91
75646;BME280;64237;52.438;13.240;2022-10-18T01:45:30;102012.50;;;14.24;86.31
75646;BME280;64237;52.438;13.240;2022-10-18T01:47:57;102009.09;;;14.22;86.31
75646;BME280;64237;52.438;13.240;2022-10-18T01:50:31;102010.34;;;14.26;86.18
75646;BME280;64237;52.438;13.240;2022-10-18T01:52:57;102002.47;;;14.23;86.29
75646;BME280;64237;52.438;13.240;2022-10-18T01:57:58;102015.16;;;14.19;86.92
75646;BME280;64237;52.438;13.240;2022-10-18T02:00:36;102010.03;;;14.16;86.66
75646;BME280;64237;52.438;13.240;2022-10-18T02:03:07;102008.34;;;14.15;87.04
75646;BME280;64237;52.438;13.240;2022-10-18T02:06:12;102005.72;;;14.20;87.29
75646;BME280;64237;52.438;13.240;2022-10-18T02:11:14;101999.19;;;14.26;86.89
75646;BME280;64237;52.438;13.240;2022-10-18T02:14:13;102001.38;;;14.24;87.35
75646;BME280;64237;52.438;13.240;2022-10-18T02:16:40;102003.31;;;14.24;87.42
75646;BME280;64237;52.438;13.240;2022-10-18T02:19:13;102004.16;;;14.24;87.45
75646;BME280;64237;52.438;13.240;2022-10-18T02:21:41;102008.16;;;14.28;87.41
75646;BME280;64237;52.438;13.240;2022-10-18T02:24:09;102014.94;;;14.32;87.48
75646;BME280;64237;52.438;13.240;2022-10-18T02:26:36;102008.16;;;14.28;87.31
75646;BME280;64237;52.438;13.240;2022-10-18T02:29:02;102008.75;;;14.30;87.28
75646;BME280;64237;52.438;13.240;2022-10-18T02:31:35;102023.06;;;14.34;87.46
75646;BME280;64237;52.438;13.240;2022-10-18T02:34:13;102027.31;;;14.36;87.56
75646;BME280;64237;52.438;13.240;2022-10-18T02:36:51;102030.31;;;14.35;87.65
75646;BME280;64237;52.438;13.240;2022-10-18T02:39:21;102030.88;;;14.44;87.28
75646;BME280;64237;52.438;13.240;2022-10-18T02:41:48;102029.19;;;14.43;87.52
75646;BME280;64237;52.438;13.240;2022-10-18T02:44:13;102046.50;;;14.45;87.91
75646;BME280;64237;52.438;13.240;2022-10-18T02:46:39;102032.88;;;14.36;87.99
75646;BME280;64237;52.438;13.240;2022-10-18T02:49:05;102027.16;;;14.50;88.85
75646;BME280;64237;52.438;13.240;2022-10-18T02:51:30;102030.66;;;14.45;88.42
75646;BME280;64237;52.438;13.240;2022-10-18T02:53:55;102022.91;;;14.47;88.56
75646;BME280;64237;52.438;13.240;2022-10-18T02:56:21;102031.03;;;14.49;88.90
75646;BME280;64237;52.438;13.240;2022-10-18T02:58:46;102033.31;;;14.52;89.58
75646;BME280;64237;52.438;13.240;2022-10-18T03:01:11;102033.81;;;14.60;90.38
75646;BME280;64237;52.438;13.240;2022-10-18T03:03:37;102034.44;;;14.62;90.06
75646;BME280;64237;52.438;13.240;2022-10-18T03:06:02;102036.38;;;14.62;89.83
75646;BME280;64237;52.438;13.240;2022-10-18T03:08:28;102046.44;;;14.63;90.03
75646;BME280;64237;52.438;13.240;2022-10-18T03:10:53;102056.47;;;14.64;89.78
75646;BME280;64237;52.438;13.240;2022-10-18T03:13:19;102064.97;;;14.69;90.69
75646;BME280;64237;52.438;13.240;2022-10-18T03:15:45;102069.72;;;14.68;90.42
75646;BME280;64237;52.438;13.240;2022-10-18T03:18:11;102058.56;;;14.68;90.23
75646;BME280;64237;52.438;13.240;2022-10-18T03:20:36;102048.28;;;14.69;90.03
75646;BME280;64237;52.438;13.240;2022-10-18T03:23:01;102050.22;;;14.80;89.86
75646;BME280;64237;52.438;13.240;2022-10-18T03:25:27;102046.34;;;14.81;90.34
75646;BME280;64237;52.438;13.240;2022-10-18T03:27:52;102034.72;;;14.84;89.81
75646;BME280;64237;52.438;13.240;2022-10-18T03:30:18;102036.03;;;14.82;90.63
75646;BME280;64237;52.438;13.240;2022-10-18T03:32:43;102048.50;;;14.79;90.74
75646;BME280;64237;52.438;13.240;2022-10-18T03:35:09;102029.63;;;14.81;91.33
75646;BME280;64237;52.438;13.240;2022-10-18T03:37:35;102034.09;;;14.82;90.95
75646;BME280;64237;52.438;13.240;2022-10-18T03:40:01;102041.38;;;14.83;91.08
75646;BME280;64237;52.438;13.240;2022-10-18T03:42:26;102052.06;;;14.86;91.27
75646;BME280;64237;52.438;13.240;2022-10-18T03:44:51;102051.69;;;14.83;91.12
75646;BME280;64237;52.438;13.240;2022-10-18T03:47:17;102051.91;;;14.81;90.97
75646;BME280;64237;52.438;13.240;2022-10-18T03:49:42;102047.19;;;14.82;90.88
75646;BME280;64237;52.438;13.240;2022-10-18T03:52:08;102044.66;;;14.80;91.09
75646;BME280;64237;52.438;13.240;2022-10-18T03:54:34;102031.81;;;14.79;91.06
75646;BME280;64237;52.438;13.240;2022-10-18T03:57:00;102035.69;;;14.78;91.23
75646;BME280;64237;52.438;13.240;2022-10-18T03:59:25;102036.03;;;14.82;90.88
75646;BME280;64237;52.438;13.240;2022-10-18T04:01:51;102041.00;;;14.80;90.92
75646;BME280;64237;52.438;13.240;2022-10-18T04:04:16;102046.81;;;14.78;91.11
75646;BME280;64237;52.438;13.240;2022-10-18T04:06:41;102045.72;;;14.79;90.87
75646;BME280;64237;52.438;13.240;2022-10-18T04:09:07;102048.50;;;14.79;90.90
75646;BME280;64237;52.438;13.240;2022-10-18T04:11:32;102055.19;;;14.78;91.02
75646;BME280;64237;52.438;13.240;2022-10-18T04:13:58;102043.88;;;14.73;91.05
75646;BME280;64237;52.438;13.240;2022-10-18T04:16:24;102038.31;;;14.73;91.33
75646;BME280;64237;52.438;13.240;2022-10-18T04:18:49;102040.03;;;14.74;90.80
75646;BME280;64237;52.438;13.240;2022-10-18T04:21:15;102040.03;;;14.74;90.90
75646;BME280;64237;52.438;13.240;2022-10-18T04:23:40;102049.47;;;14.73;91.05
75646;BME280;64237;52.438;13.240;2022-10-18T04:26:06;102044.50;;;14.75;90.95
75646;BME280;64237;52.438;13.240;2022-10-18T04:28:32;102050.06;;;14.75;91.20
75646;BME280;64237;52.438;13.240;2022-10-18T04:30:58;102047.28;;;14.75;90.94
75646;BME280;64237;52.438;13.240;2022-10-18T04:33:24;102035.81;;;14.71;91.04
75646;BME280;64237;52.438;13.240;2022-10-18T04:35:51;102048.88;;;14.71;91.29
75646;BME280;64237;52.438;13.240;2022-10-18T04:38:18;102049.47;;;14.73;90.93
75646;BME280;64237;52.438;13.240;2022-10-18T04:40:46;102052.75;;;14.70;90.97
75646;BME280;64237;52.438;13.240;2022-10-18T04:43:12;102042.22;;;14.72;91.58
75646;BME280;64237;52.438;13.240;2022-10-18T04:45:37;102040.53;;;14.71;91.14
75646;BME280;64237;52.438;13.240;2022-10-18T04:48:03;102046.44;;;14.74;90.95
75646;BME280;64237;52.438;13.240;2022-10-18T04:50:28;102043.03;;;14.72;91.07
75646;BME280;64237;52.438;13.240;2022-10-18T04:52:54;102050.31;;;14.73;90.85
75646;BME280;64237;52.438;13.240;2022-10-18T04:55:19;102055.53;;;14.70;91.00
75646;BME280;64237;52.438;13.240;2022-10-18T04:57:45;102047.41;;;14.68;91.04
75646;BME280;64237;52.438;13.240;2022-10-18T05:00:11;102041.47;;;14.65;91.19
75646;BME280;64237;52.438;13.240;2022-10-18T05:02:36;102042.69;;;14.69;90.97
75646;BME280;64237;52.438;13.240;2022-10-18T05:05:02;102038.81;;;14.70;90.85
75646;BME280;64237;52.438;13.240;2022-10-18T05:07:27;102040.53;;;14.71;90.39
75646;BME280;64237;52.438;13.240;2022-10-18T05:09:52;102033.25;;;14.70;90.91
75646;BME280;64237;52.438;13.240;2022-10-18T05:12:18;102027.69;;;14.70;90.82
75646;BME280;64237;52.438;13.240;2022-10-18T05:14:43;102031.44;;;14.75;90.48
75646;BME280;64237;52.438;13.240;2022-10-18T05:17:08;102033.38;;;14.75;90.53
75646;BME280;64237;52.438;13.240;2022-10-18T05:19:34;102030.56;;;14.75;90.22
75646;BME280;64237;52.438;13.240;2022-10-18T05:21:59;102034.44;;;14.74;90.29
75646;BME280;64237;52.438;13.240;2022-10-18T05:24:24;102027.69;;;14.70;90.61
75646;BME280;64237;52.438;13.240;2022-10-18T05:26:50;102038.22;;;14.68;90.50
75646;BME280;64237;52.438;13.240;2022-10-18T05:29:15;102035.28;;;14.63;90.93
75646;BME280;64237;52.438;13.240;2022-10-18T05:31:40;102026.56;;;14.59;90.79
75646;BME280;64237;52.438;13.240;2022-10-18T05:34:06;102020.97;;;14.59;91.00
75646;BME280;64237;52.438;13.240;2022-10-18T05:36:31;102034.69;;;14.61;91.05
75646;BME280;64237;52.438;13.240;2022-10-18T05:38:56;102029.94;;;14.61;91.07
75646;BME280;64237;52.438;13.240;2022-10-18T05:41:22;102035.53;;;14.61;90.97
75646;BME280;64237;52.438;13.240;2022-10-18T05:43:47;102040.25;;;14.61;91.03
75646;BME280;64237;52.438;13.240;2022-10-18T05:46:12;102032.75;;;14.61;90.34
75646;BME280;64237;52.438;13.240;2022-10-18T05:48:38;102038.69;;;14.65;90.70
75646;BME280;64237;52.438;13.240;2022-10-18T05:51:03;102041.00;;;14.68;90.17
75646;BME280;64237;52.438;13.240;2022-10-18T05:53:29;102041.00;;;14.68;90.20
75646;BME280;64237;52.438;13.240;2022-10-18T05:55:58;102049.59;;;14.66;90.29
75646;BME280;64237;52.438;13.240;2022-10-18T05:58:23;102048.59;;;14.61;90.43
75646;BME280;64237;52.438;13.240;2022-10-18T06:00:49;102036.13;;;14.63;90.30
75646;BME280;64237;52.438;13.240;2022-10-18T06:03:14;102040.84;;;14.63;90.55
75646;BME280;64237;52.438;13.240;2022-10-18T06:05:39;102039.53;;;14.65;90.26
75646;BME280;64237;52.438;13.240;2022-10-18T06:08:05;102026.69;;;14.64;90.33
75646;BME280;64237;52.438;13.240;2022-10-18T06:10:30;102020.03;;;14.65;90.22
75646;BME280;64237;52.438;13.240;2022-10-18T06:12:55;102020.50;;;14.62;90.15
75646;BME280;64237;52.438;13.240;2022-10-18T06:15:21;102021.47;;;14.56;91.08
75646;BME280;64237;52.438;13.240;2022-10-18T06:17:46;102027.72;;;14.52;90.74
75646;BME280;64237;52.438;13.240;2022-10-18T06:20:11;102025.44;;;14.49;90.96
75646;BME280;64237;52.438;13.240;2022-10-18T06:22:36;102024.94;;;14.52;91.14
75646;BME280;64237;52.438;13.240;2022-10-18T06:25:02;102012.50;;;14.54;90.86
75646;BME280;64237;52.438;13.240;2022-10-18T06:27:27;102012.38;;;14.61;90.33
75646;BME280;64237;52.438;13.240;2022-10-18T06:29:55;102013.47;;;14.60;90.70
75646;BME280;64237;52.438;13.240;2022-10-18T06:32:20;102008.53;;;14.62;90.51
75646;BME280;64237;52.438;13.240;2022-10-18T06:34:46;102014.09;;;14.62;90.61
75646;BME280;64237;52.438;13.240;2022-10-18T06:37:11;102026.19;;;14.56;90.71
75646;BME280;64237;52.438;13.240;2022-10-18T06:39:36;102032.59;;;14.56;90.89
75646;BME280;64237;52.438;13.240;2022-10-18T06:42:02;102031.28;;;14.59;91.18
75646;BME280;64237;52.438;13.240;2022-10-18T06:44:27;102030.81;;;14.62;91.03
75646;BME280;64237;52.438;13.240;2022-10-18T06:46:52;102029.72;;;14.63;91.09
75646;BME280;64237;52.438;13.240;2022-10-18T06:49:18;102030.31;;;14.65;90.81
75646;BME280;64237;52.438;13.240;2022-10-18T06:51:43;102040.00;;;14.62;91.62
75646;BME280;64237;52.438;13.240;2022-10-18T06:54:09;102035.53;;;14.61;91.53
75646;BME280;64237;52.438;13.240;2022-10-18T06:56:35;102039.16;;;14.62;91.52
75646;BME280;64237;52.438;13.240;2022-10-18T06:59:02;102038.31;;;14.61;91.48
75646;BME280;64237;52.438;13.240;2022-10-18T07:01:27;102041.47;;;14.65;91.38
75646;BME280;64237;52.438;13.240;2022-10-18T07:03:53;102046.56;;;14.68;91.24
75646;BME280;64237;52.438;13.240;2022-10-18T07:06:18;102058.19;;;14.65;91.60
75646;BME280;64237;52.438;13.240;2022-10-18T07:08:45;102065.06;;;14.62;91.82
75646;BME280;64237;52.438;13.240;2022-10-18T07:11:18;102060.50;;;14.68;91.67
75646;BME280;64237;52.438;13.240;2022-10-18T07:13:44;102060.97;;;14.77;91.25
75646;BME280;64237;52.438;13.240;2022-10-18T07:16:11;102066.94;;;14.80;91.32
75646;BME280;64237;52.438;13.240;2022-10-18T07:18:40;102066.94;;;14.80;91.37
75646;BME280;64237;52.438;13.240;2022-10-18T07:21:08;102075.44;;;14.85;91.58
75646;BME280;64237;52.438;13.240;2022-10-18T07:23:35;102089.50;;;14.90;91.28
75646;BME280;64237;52.438;13.240;2022-10-18T07:26:03;102091.44;;;14.90;91.30
75646;BME280;64237;52.438;13.240;2022-10-18T07:28:29;102097.88;;;14.90;91.10
75646;BME280;64237;52.438;13.240;2022-10-18T07:30:54;102102.13;;;14.93;91.40
75646;BME280;64237;52.438;13.240;2022-10-18T07:33:20;102106.22;;;14.90;91.49
75646;BME280;64237;52.438;13.240;2022-10-18T07:35:46;102103.53;;;14.95;91.54
75646;BME280;64237;52.438;13.240;2022-10-18T07:38:11;102100.53;;;14.97;91.21
75646;BME280;64237;52.438;13.240;2022-10-18T07:40:37;102097.03;;;15.01;91.46
75646;BME280;64237;52.438;13.240;2022-10-18T07:43:02;102095.69;;;15.04;91.52
75646;BME280;64237;52.438;13.240;2022-10-18T07:45:28;102098.72;;;15.02;91.35
75646;BME280;64237;52.438;13.240;2022-10-18T07:47:55;102093.38;;;15.01;91.41
75646;BME280;64237;52.438;13.240;2022-10-18T07:50:20;102088.06;;;14.99;91.84
75646;BME280;64237;52.438;13.240;2022-10-18T07:52:45;102092.69;;;15.05;91.55
75646;BME280;64237;52.438;13.240;2022-10-18T07:55:11;102098.63;;;15.09;91.59
75646;BME280;64237;52.438;13.240;2022-10-18T07:57:36;102090.50;;;15.07;91.59
75646;BME280;64237;52.438;13.240;2022-10-18T08:00:02;102084.94;;;15.07;91.79
75646;BME280;64237;52.438;13.240;2022-10-18T08:02:27;102091.34;;;15.08;92.08
75646;BME280;64237;52.438;13.240;2022-10-18T08:04:53;102092.69;;;15.05;91.67
75646;BME280;64237;52.438;13.240;2022-10-18T08:07:18;102098.25;;;15.05;91.98
75646;BME280;64237;52.438;13.240;2022-10-18T08:09:43;102092.69;;;15.05;92.05
75646;BME280;64237;52.438;13.240;2022-10-18T08:12:09;102093.91;;;15.09;91.73
75646;BME280;64237;52.438;13.240;2022-10-18T08:14:34;102082.00;;;15.02;92.00
75646;BME280;64237;52.438;13.240;2022-10-18T08:16:59;102083.69;;;15.03;92.24
75646;BME280;64237;52.438;13.240;2022-10-18T08:19:25;102082.00;;;15.02;92.15
75646;BME280;64237;52.438;13.240;2022-10-18T08:21:50;102083.56;;;14.98;92.47
75646;BME280;64237;52.438;13.240;2022-10-18T08:24:15;102091.34;;;15.08;92.54
75646;BME280;64237;52.438;13.240;2022-10-18T08:26:41;102087.47;;;15.09;92.11
75646;BME280;64237;52.438;13.240;2022-10-18T08:29:06;102079.34;;;15.07;92.03
75646;BME280;64237;52.438;13.240;2022-10-18T08:33:56;102084.31;;;15.17;91.93
75646;BME280;64237;52.438;13.240;2022-10-18T08:36:22;102081.28;;;15.19;92.19
75646;BME280;64237;52.438;13.240;2022-10-18T08:38:48;102084.31;;;15.17;92.09
75646;BME280;64237;52.438;13.240;2022-10-18T08:46:43;102084.22;;;15.24;92.02
75646;BME280;64237;52.438;13.240;2022-10-18T08:49:25;102079.59;;;15.18;92.02
75646;BME280;64237;52.438;13.240;2022-10-18T08:51:54;102087.94;;;15.18;91.88
75646;BME280;64237;52.438;13.240;2022-10-18T08:54:29;102086.84;;;15.19;92.13
75646;BME280;64237;52.438;13.240;2022-10-18T08:56:58;102086.84;;;15.19;92.50
75646;BME280;64237;52.438;13.240;2022-10-18T08:59:24;102087.72;;;15.19;92.32
75646;BME280;64237;52.438;13.240;2022-10-18T09:10:49;102084.31;;;15.17;91.83
75646;BME280;64237;52.438;13.240;2022-10-18T09:16:20;102094.50;;;15.12;92.16
75646;BME280;64237;52.438;13.240;2022-10-18T09:21:52;102102.13;;;15.04;92.21
75646;BME280;64237;52.438;13.240;2022-10-18T09:24:29;102092.91;;;15.04;92.17
75646;BME280;64237;52.438;13.240;2022-10-18T09:27:02;102094.38;;;15.06;92.31
75646;BME280;64237;52.438;13.240;2022-10-18T09:32:55;102088.81;;;15.06;92.15
75646;BME280;64237;52.438;13.240;2022-10-18T09:35:11;102091.72;;;15.12;92.43
75646;BME280;64237;52.438;13.240;2022-10-18T09:37:38;102087.22;;;15.11;92.36
75646;BME280;64237;52.438;13.240;2022-10-18T09:40:18;102083.97;;;15.14;92.49
75646;BME280;64237;52.438;13.240;2022-10-18T09:42:58;102089.03;;;15.17;92.26
75646;BME280;64237;52.438;13.240;2022-10-18T09:48:03;102081.53;;;15.17;92.07
75646;BME280;64237;52.438;13.240;2022-10-18T09:50:51;102085.16;;;15.18;91.95
75646;BME280;64237;52.438;13.240;2022-10-18T09:53:32;102086.25;;;15.17;92.38
75646;BME280;64237;52.438;13.240;2022-10-18T09:56:13;102094.03;;;15.15;92.11
75646;BME280;64237;52.438;13.240;2022-10-18T09:58:47;102097.91;;;15.14;91.99
75646;BME280;64237;52.438;13.240;2022-10-18T10:01:24;102094.28;;;15.13;92.16
75646;BME280;64237;52.438;13.240;2022-10-18T10:03:50;102097.41;;;15.17;92.08
75646;BME280;64237;52.438;13.240;2022-10-18T10:08:43;102096.31;;;15.18;92.17
75646;BME280;64237;52.438;13.240;2022-10-18T10:11:28;102101.28;;;15.16;92.18
75646;BME280;64237;52.438;13.240;2022-10-18T10:14:06;102096.44;;;15.11;92.20
75646;BME280;64237;52.438;13.240;2022-10-18T10:16:32;102089.16;;;15.10;92.43
75646;BME280;64237;52.438;13.240;2022-10-18T10:18:57;102088.31;;;15.09;92.23
75646;BME280;64237;52.438;13.240;2022-10-18T10:21:23;102102.03;;;15.11;92.50
75646;BME280;64237;52.438;13.240;2022-10-18T10:23:52;102080.56;;;15.12;92.36
75646;BME280;64237;52.438;13.240;2022-10-18T10:26:22;102088.94;;;15.12;92.24
75646;BME280;64237;52.438;13.240;2022-10-18T10:28:49;102080.69;;;15.17;92.30
75646;BME280;64237;52.438;13.240;2022-10-18T10:36:22;102070.28;;;15.12;91.87
75646;BME280;64237;52.438;13.240;2022-10-18T10:39:11;102078.41;;;15.14;92.35
75646;BME280;64237;52.438;13.240;2022-10-18T10:41:39;102069.19;;;15.25;91.80
75646;BME280;64237;52.438;13.240;2022-10-18T10:44:14;102059.25;;;15.29;91.78
75646;BME280;64237;52.438;13.240;2022-10-18T10:46:40;102061.31;;;15.33;91.52
75646;BME280;64237;52.438;13.240;2022-10-18T10:49:12;102058.75;;;15.32;90.51
75646;BME280;64237;52.438;13.240;2022-10-18T10:51:41;102051.00;;;15.34;90.96
75646;BME280;64237;52.438;13.240;2022-10-18T10:54:17;102054.41;;;15.36;90.97
75646;BME280;64237;52.438;13.240;2022-10-18T10:57:00;102046.38;;;15.28;91.64
75646;BME280;64237;52.438;13.240;2022-10-18T10:59:30;102040.69;;;15.34;92.12
75646;BME280;64237;52.438;13.240;2022-10-18T11:04:44;102055.38;;;15.30;90.95
75646;BME280;64237;52.438;13.240;2022-10-18T11:07:35;102053.19;;;15.32;90.79
75646;BME280;64237;52.438;13.240;2022-10-18T11:10:14;102047.97;;;15.24;91.71
75646;BME280;64237;52.438;13.240;2022-10-18T11:15:36;102050.53;;;15.37;90.71
75646;BME280;64237;52.438;13.240;2022-10-18T11:18:15;102040.94;;;15.33;90.94
75646;BME280;64237;52.438;13.240;2022-10-18T11:23:35;102046.59;;;15.38;91.21
75646;BME280;64237;52.438;13.240;2022-10-18T11:31:34;102037.88;;;15.46;90.95
75646;BME280;64237;52.438;13.240;2022-10-18T11:39:50;102043.72;;;15.44;91.64
75646;BME280;64237;52.438;13.240;2022-10-18T11:45:29;102040.19;;;15.49;91.91
75646;BME280;64237;52.438;13.240;2022-10-18T11:51:13;102022.84;;;15.47;91.74
75646;BME280;64237;52.438;13.240;2022-10-18T11:56:38;102027.69;;;15.63;90.81
75646;BME280;64237;52.438;13.240;2022-10-18T11:59:23;102030.13;;;15.71;91.13
75646;BME280;64237;52.438;13.240;2022-10-18T12:01:55;102040.78;;;15.74;90.66
75646;BME280;64237;52.438;13.240;2022-10-18T12:04:26;102025.25;;;15.79;91.31
75646;BME280;64237;52.438;13.240;2022-10-18T12:06:57;102013.75;;;15.75;90.84
75646;BME280;64237;52.438;13.240;2022-10-18T12:11:56;102022.84;;;15.70;91.54
75646;BME280;64237;52.438;13.240;2022-10-18T12:14:43;102018.72;;;15.73;91.07
75646;BME280;64237;52.438;13.240;2022-10-18T12:17:27;102027.94;;;15.73;90.43
75646;BME280;64237;52.438;13.240;2022-10-18T12:19:58;102028.06;;;15.67;90.38
75646;BME280;64237;52.438;13.240;2022-10-18T12:22:28;102022.00;;;15.70;91.42
75646;BME280;64237;52.438;13.240;2022-10-18T12:24:57;102029.03;;;15.72;91.16
75646;BME280;64237;52.438;13.240;2022-10-18T12:27:34;102022.84;;;15.70;90.91
75646;BME280;64237;52.438;13.240;2022-10-18T12:30:10;102020.06;;;15.70;91.55
75646;BME280;64237;52.438;13.240;2022-10-18T12:32:38;102009.00;;;15.75;91.18
75646;BME280;64237;52.438;13.240;2022-10-18T12:35:14;102008.53;;;15.79;90.81
75646;BME280;64237;52.438;13.240;2022-10-18T12:40:46;102002.94;;;15.79;90.28
75646;BME280;64237;52.438;13.240;2022-10-18T12:43:24;102012.41;;;15.77;90.50
75646;BME280;64237;52.438;13.240;2022-10-18T12:45:56;102006.81;;;15.77;91.06
75646;BME280;64237;52.438;13.240;2022-10-18T12:51:14;102000.16;;;15.79;90.70
75646;BME280;64237;52.438;13.240;2022-10-18T12:53:42;101998.94;;;15.74;91.03
75646;BME280;64237;52.438;13.240;2022-10-18T13:16:03;101999.72;;;15.87;90.50
75646;BME280;64237;52.438;13.240;2022-10-18T13:18:51;101998.41;;;15.89;89.98
75646;BME280;64237;52.438;13.240;2022-10-18T13:24:13;101995.56;;;16.01;90.57
75646;BME280;64237;52.438;13.240;2022-10-18T13:34:52;102007.41;;;16.08;89.27
75646;BME280;64237;52.438;13.240;2022-10-18T13:37:21;102005.22;;;16.10;89.25
75646;BME280;64237;52.438;13.240;2022-10-18T13:39:48;102002.41;;;16.22;89.59
75646;BME280;64237;52.438;13.240;2022-10-18T13:44:41;102003.94;;;16.29;89.02
75646;BME280;64237;52.438;13.240;2022-10-18T13:47:11;102005.97;;;16.34;88.68
75646;BME280;64237;52.438;13.240;2022-10-18T13:50:09;102003.44;;;16.32;89.87
75646;BME280;64237;52.438;13.240;2022-10-18T13:58:30;102006.94;;;16.11;89.68
75646;BME280;64237;52.438;13.240;2022-10-18T14:01:30;102011.81;;;16.04;90.24
75646;BME280;64237;52.438;13.240;2022-10-18T14:06:41;102010.81;;;16.10;88.84
75646;BME280;64237;52.438;13.240;2022-10-18T14:09:29;102019.91;;;16.17;88.76
75646;BME280;64237;52.438;13.240;2022-10-18T14:14:45;102025.59;;;16.22;89.26
75646;BME280;64237;52.438;13.240;2022-10-18T14:20:26;102029.75;;;16.08;88.96
75646;BME280;64237;52.438;13.240;2022-10-18T14:23:03;102035.16;;;15.98;89.48
75646;BME280;64237;52.438;13.240;2022-10-18T14:25:35;102032.97;;;16.00;87.58
75646;BME280;64237;52.438;13.240;2022-10-18T14:28:20;102037.09;;;15.97;88.95
75646;BME280;64237;52.438;13.240;2022-10-18T14:39:04;102042.50;;;15.75;87.59
75646;BME280;64237;52.438;13.240;2022-10-18T14:41:33;102033.22;;;15.87;88.55
75646;BME280;64237;52.438;13.240;2022-10-18T14:49:10;102046.22;;;15.81;88.69
75646;BME280;64237;52.438;13.240;2022-10-18T14:51:38;102045.41;;;15.69;89.21
75646;BME280;64237;52.438;13.240;2022-10-18T14:54:05;102044.91;;;15.60;90.01
75646;BME280;64237;52.438;13.240;2022-10-18T14:56:36;102040.81;;;15.51;90.31
75646;BME280;64237;52.438;13.240;2022-10-18T14:59:04;102040.81;;;15.51;89.95
75646;BME280;64237;52.438;13.240;2022-10-18T15:01:34;102035.56;;;15.43;89.56
75646;BME280;64237;52.438;13.240;2022-10-18T15:04:10;102031.56;;;15.39;89.69
75646;BME280;64237;52.438;13.240;2022-10-18T15:06:41;102035.00;;;15.29;89.48
75646;BME280;64237;52.438;13.240;2022-10-18T15:09:08;102031.59;;;15.27;89.53
75646;BME280;64237;52.438;13.240;2022-10-18T15:11:35;102030.75;;;15.15;89.87
75646;BME280;64237;52.438;13.240;2022-10-18T15:14:04;102029.91;;;15.15;89.62
75646;BME280;64237;52.438;13.240;2022-10-18T15:16:33;102034.38;;;15.16;89.95
75646;BME280;64237;52.438;13.240;2022-10-18T15:19:06;102039.72;;;15.17;89.61
75646;BME280;64237;52.438;13.240;2022-10-18T15:21:54;102039.22;;;15.08;89.98
75646;BME280;64237;52.438;13.240;2022-10-18T15:26:55;102043.09;;;14.96;90.01
75646;BME280;64237;52.438;13.240;2022-10-18T15:29:24;102038.34;;;14.96;90.20